createdAt,value
2018-12-09T00:04:30.608Z,12.30
2018-12-09T00:09:35.802Z,9.90
2018-12-09T00:14:42.107Z,10.70
2018-12-09T00:19:47.608Z,12.07
2018-12-09T00:24:52.706Z,10.53
2018-12-09T00:29:58.758Z,15.13
2018-12-09T00:35:03.740Z,12.70
2018-12-09T00:40:09.772Z,10.47
2018-12-09T00:45:15.078Z,10.93
2018-12-09T00:50:21.277Z,11.17
2018-12-09T00:55:26.118Z,10.73
2018-12-09T01:00:32.290Z,13.67
2018-12-09T01:05:37.657Z,12.33
2018-12-09T01:10:42.608Z,11.43
2018-12-09T01:15:48.496Z,13.73
2018-12-09T01:20:53.370Z,11.67
2018-12-09T01:25:59.686Z,14.93
2018-12-09T01:31:04.667Z,9.97
2018-12-09T01:36:11.023Z,14.77
2018-12-09T01:41:15.983Z,13.80
2018-12-09T01:46:22.189Z,13.13
2018-12-09T01:51:27.691Z,17.90
2018-12-09T01:56:34.524Z,12.23
2018-12-09T02:01:41.436Z,12.57
2018-12-09T02:06:47.903Z,10.93
2018-12-09T02:11:54.984Z,11.57
2018-12-09T02:17:01.172Z,9.57
2018-12-09T02:22:06.130Z,12.90
2018-12-09T02:27:12.781Z,11.07
2018-12-09T02:32:19.736Z,11.73
2018-12-09T02:37:25.018Z,15.40
2018-12-09T02:42:31.325Z,13.10
2018-12-09T02:47:38.237Z,11.47
2018-12-09T02:52:43.173Z,16.73
2018-12-09T02:57:49.606Z,16.20
2018-12-09T03:02:54.620Z,14.80
2018-12-09T03:08:00.960Z,13.20
2018-12-09T03:13:05.960Z,17.40
2018-12-09T03:18:11.890Z,18.87
2018-12-09T03:23:18.762Z,15.70
2018-12-09T03:28:23.846Z,12.87
2018-12-09T03:33:29.217Z,14.00
2018-12-09T03:38:34.189Z,13.50
2018-12-09T03:43:41.066Z,16.90
2018-12-09T03:48:46.109Z,14.93
2018-12-09T03:53:52.458Z,12.73
2018-12-09T03:59:02.702Z,21.03
2018-12-09T04:04:07.881Z,14.63
2018-12-09T04:09:12.923Z,17.33
2018-12-09T04:14:20.132Z,21.23
2018-12-09T04:19:24.988Z,22.23
2018-12-09T04:24:30.517Z,19.93
2018-12-09T04:29:35.824Z,17.37
2018-12-09T04:34:41.936Z,18.43
2018-12-09T04:39:47.583Z,15.80
2018-12-09T04:44:52.858Z,16.37
2018-12-09T04:49:58.953Z,13.93
2018-12-09T04:55:04.016Z,19.80
2018-12-09T05:00:20.685Z,17.70
2018-12-09T05:05:25.572Z,15.00
2018-12-09T05:10:31.985Z,11.87
2018-12-09T05:15:38.436Z,12.37
2018-12-09T05:20:43.278Z,9.97
2018-12-09T05:25:50.126Z,13.33
2018-12-09T05:30:55.003Z,11.33
2018-12-09T05:36:01.225Z,10.53
2018-12-09T05:41:06.062Z,9.97
2018-12-09T05:46:12.075Z,20.03
2018-12-09T05:51:19.160Z,12.13
2018-12-09T05:56:24.108Z,8.67
2018-12-09T06:01:30.650Z,9.53
2018-12-09T06:06:35.501Z,11.10
2018-12-09T06:11:42.121Z,9.47
2018-12-09T06:16:48.474Z,8.10
2018-12-09T06:21:54.830Z,10.10
2018-12-09T06:27:01.468Z,14.50
2018-12-09T06:32:08.314Z,13.37
2018-12-09T06:37:13.642Z,9.73
2018-12-09T06:42:20.478Z,13.30
2018-12-09T06:47:25.759Z,10.13
2018-12-09T06:52:32.508Z,10.70
2018-12-09T06:57:38.382Z,14.10
2018-12-09T07:02:43.534Z,8.73
2018-12-09T07:07:49.253Z,10.70
2018-12-09T07:12:54.323Z,10.10
2018-12-09T07:18:00.676Z,14.77
2018-12-09T07:23:05.648Z,12.00
2018-12-09T07:28:12.028Z,8.73
2018-12-09T07:33:18.550Z,12.40
2018-12-09T07:38:23.415Z,10.13
2018-12-09T07:43:29.177Z,11.37
2018-12-09T07:48:34.187Z,10.47
2018-12-09T07:53:40.397Z,11.90
2018-12-09T07:58:45.257Z,9.17
2018-12-09T08:03:50.582Z,10.10
2018-12-09T08:08:56.941Z,8.70
2018-12-09T08:14:02.160Z,12.70
2018-12-09T08:19:08.640Z,10.63
2018-12-09T08:24:14.202Z,10.87
2018-12-09T08:29:21.156Z,8.97
2018-12-09T08:34:26.100Z,10.47
2018-12-09T08:39:32.398Z,7.97
2018-12-09T08:44:38.311Z,7.97
2018-12-09T08:49:43.592Z,6.27
2018-12-09T08:54:50.196Z,9.40
2018-12-09T08:59:56.217Z,11.60
2018-12-09T09:05:02.126Z,6.50
2018-12-09T09:10:08.691Z,8.43
2018-12-09T09:15:13.622Z,7.60
2018-12-09T09:20:19.699Z,7.77
2018-12-09T09:25:24.735Z,7.63
2018-12-09T09:30:31.062Z,6.27
2018-12-09T09:35:35.946Z,8.57
2018-12-09T09:40:42.006Z,5.97
2018-12-09T09:45:51.293Z,7.70
2018-12-09T09:50:56.331Z,8.07
2018-12-09T09:56:02.116Z,6.53
2018-12-09T10:01:08.727Z,10.97
2018-12-09T10:06:14.191Z,10.57
2018-12-09T10:11:20.551Z,10.10
2018-12-09T10:16:25.889Z,10.43
2018-12-09T10:21:37.870Z,10.70
2018-12-09T10:26:43.952Z,7.93
2018-12-09T10:31:49.731Z,8.10
2018-12-09T10:36:56.748Z,9.17
2018-12-09T10:42:03.028Z,6.10
2018-12-09T10:47:09.071Z,7.43
2018-12-09T10:52:14.950Z,7.83
2018-12-09T10:57:21.150Z,7.93
2018-12-09T11:02:26.585Z,7.07
2018-12-09T11:07:32.093Z,6.60
2018-12-09T11:12:38.494Z,7.70
2018-12-09T11:17:43.559Z,6.73
2018-12-09T11:22:51.412Z,4.80
2018-12-09T11:27:58.709Z,5.40
2018-12-09T11:33:03.571Z,4.50
2018-12-09T11:38:09.700Z,7.67
2018-12-09T11:43:14.675Z,4.63
2018-12-09T11:48:20.997Z,10.00
2018-12-09T11:53:26.963Z,5.37
2018-12-09T11:58:32.937Z,5.90
2018-12-09T12:03:38.084Z,9.00
2018-12-09T12:08:45.114Z,8.63
2018-12-09T12:13:51.279Z,5.90
2018-12-09T12:18:57.516Z,7.77
2018-12-09T12:24:02.461Z,4.80
2018-12-09T12:29:08.359Z,5.20
2018-12-09T12:34:13.261Z,6.37
2018-12-09T12:39:20.541Z,6.60
2018-12-09T12:44:26.761Z,5.47
2018-12-09T12:49:33.823Z,9.67
2018-12-09T12:54:39.744Z,6.47
2018-12-09T12:59:45.055Z,8.27
2018-12-09T13:04:50.620Z,10.97
2018-12-09T13:09:56.770Z,10.50
2018-12-09T13:15:16.429Z,8.10
2018-12-09T13:20:24.630Z,6.47
2018-12-09T13:25:32.051Z,6.00
2018-12-09T13:30:37.030Z,6.57
2018-12-09T13:35:42.555Z,7.70
2018-12-09T13:40:50.170Z,6.00
2018-12-09T13:45:59.118Z,8.33
2018-12-09T13:51:04.206Z,8.93
2018-12-09T13:56:11.035Z,12.07
2018-12-09T14:01:15.950Z,5.23
2018-12-09T14:06:22.201Z,6.13
2018-12-09T14:11:29.153Z,6.07
2018-12-09T14:16:34.127Z,6.20
2018-12-09T14:21:39.679Z,6.77
2018-12-09T14:26:44.670Z,6.37
2018-12-09T14:31:50.963Z,7.23
2018-12-09T14:36:56.497Z,6.20
2018-12-09T14:42:02.137Z,4.60
2018-12-09T14:47:14.589Z,7.47
2018-12-09T14:52:20.615Z,10.03
2018-12-09T14:57:28.363Z,7.57
2018-12-09T15:02:33.287Z,5.67
2018-12-09T15:07:39.815Z,6.57
2018-12-09T15:12:44.849Z,8.17
2018-12-09T15:17:50.775Z,9.33
2018-12-09T15:22:56.444Z,10.20
2018-12-09T15:28:02.141Z,8.33
2018-12-09T15:33:07.687Z,11.60
2018-12-09T15:38:13.555Z,13.70
2018-12-09T15:43:20.270Z,9.00
2018-12-09T15:48:25.870Z,23.90
2018-12-09T15:53:32.257Z,12.60
2018-12-09T15:58:37.727Z,9.50
2018-12-09T16:03:44.265Z,18.67
2018-12-09T16:08:51.074Z,13.57
2018-12-09T16:13:59.049Z,9.13
2018-12-09T16:19:05.442Z,11.80
2018-12-09T16:24:11.123Z,10.30
2018-12-09T16:29:17.872Z,18.50
2018-12-09T16:34:23.115Z,14.27
2018-12-09T16:39:29.883Z,17.53
2018-12-09T16:44:34.731Z,16.23
2018-12-09T16:49:41.050Z,21.90
2018-12-09T16:54:46.031Z,15.07
2018-12-09T16:59:53.043Z,15.70
2018-12-09T17:04:59.759Z,19.27
2018-12-09T17:10:06.449Z,21.60
2018-12-09T17:15:14.597Z,17.37
2018-12-09T17:20:19.845Z,24.70
2018-12-09T17:25:25.422Z,18.50
2018-12-09T17:30:30.456Z,19.03
2018-12-09T17:35:35.424Z,18.73
2018-12-09T17:40:41.024Z,20.27
2018-12-09T17:45:45.993Z,27.77
2018-12-09T17:50:53.395Z,17.77
2018-12-09T17:55:59.158Z,18.20
2018-12-09T18:01:06.361Z,16.77
2018-12-09T18:06:12.349Z,18.47
2018-12-09T18:11:17.718Z,15.97
2018-12-09T18:16:23.327Z,17.20
2018-12-09T18:21:29.152Z,27.60
2018-12-09T18:26:34.064Z,16.80
2018-12-09T18:31:39.826Z,29.57
2018-12-09T18:36:44.904Z,16.10
2018-12-09T18:41:51.781Z,17.13
2018-12-09T18:46:58.311Z,24.87
2018-12-09T18:52:03.218Z,22.03
2018-12-09T18:57:09.774Z,33.63
2018-12-09T19:02:14.794Z,18.97
2018-12-09T19:07:21.212Z,16.85
2018-12-09T19:12:26.201Z,17.93
2018-12-09T19:17:32.304Z,27.17
2018-12-09T19:22:38.478Z,14.20
2018-12-09T19:27:45.445Z,18.33
2018-12-09T19:32:50.714Z,25.07
2018-12-09T19:37:56.568Z,17.53
2018-12-09T19:43:02.084Z,17.57
2018-12-09T19:48:07.801Z,13.73
2018-12-09T19:53:12.798Z,17.13
2018-12-09T19:58:19.677Z,25.90
2018-12-09T20:03:24.778Z,15.43
2018-12-09T20:08:33.406Z,15.93
2018-12-09T20:13:39.866Z,13.03
2018-12-09T20:18:44.808Z,11.37
2018-12-09T20:23:52.498Z,18.13
2018-12-09T20:28:58.349Z,12.47
2018-12-09T20:34:03.985Z,17.23
2018-12-09T20:39:10.135Z,13.37
2018-12-09T20:44:15.799Z,25.43
2018-12-09T20:49:23.276Z,16.87
2018-12-09T20:54:30.546Z,13.43
2018-12-09T20:59:36.812Z,13.60
2018-12-09T21:04:42.891Z,18.53
2018-12-09T21:09:50.804Z,17.23
2018-12-09T21:14:56.059Z,15.40
2018-12-09T21:20:02.767Z,15.17
2018-12-09T21:25:10.534Z,19.37
2018-12-09T21:30:15.410Z,16.67
2018-12-09T21:35:21.742Z,12.43
2018-12-09T21:40:29.170Z,14.03
2018-12-09T21:45:34.157Z,19.07
2018-12-09T21:50:41.243Z,18.80
2018-12-09T21:55:46.286Z,20.60
2018-12-09T22:00:52.737Z,16.03
2018-12-09T22:05:58.526Z,15.77
2018-12-09T22:11:04.498Z,16.53
2018-12-09T22:16:11.363Z,19.17
2018-12-09T22:21:17.011Z,16.17
2018-12-09T22:26:22.380Z,13.53
2018-12-09T22:31:28.447Z,14.67
2018-12-09T22:36:33.303Z,10.70
2018-12-09T22:41:39.699Z,11.90
2018-12-09T22:46:50.897Z,13.33
2018-12-09T22:51:55.726Z,9.87
2018-12-09T22:57:02.234Z,10.03
2018-12-09T23:02:13.714Z,13.67
2018-12-09T23:07:25.187Z,8.67
2018-12-09T23:12:31.139Z,14.53
2018-12-09T23:17:35.971Z,13.27
2018-12-09T23:22:43.585Z,12.27
2018-12-09T23:27:50.175Z,9.33
2018-12-09T23:32:55.042Z,11.50
2018-12-09T23:38:01.101Z,10.63
2018-12-09T23:43:05.975Z,7.43
2018-12-09T23:48:12.110Z,8.37
2018-12-09T23:53:18.541Z,9.90
2018-12-09T23:58:26.150Z,13.57
